createdAt,value
2017-07-14T00:01:17.530Z,9.60
2017-07-14T00:03:46.406Z,7.93
2017-07-14T00:06:15.298Z,5.20
2017-07-14T00:08:44.180Z,5.17
2017-07-14T00:11:13.075Z,3.83
2017-07-14T00:13:41.946Z,4.57
2017-07-14T00:16:10.834Z,5.30
2017-07-14T00:18:39.737Z,5.83
2017-07-14T00:21:08.628Z,6.20
2017-07-14T00:23:37.541Z,6.73
2017-07-14T00:26:06.421Z,6.97
2017-07-14T00:28:35.322Z,4.33
2017-07-14T00:31:04.199Z,5.10
2017-07-14T00:33:33.087Z,3.80
2017-07-14T00:36:01.963Z,4.27
2017-07-14T00:38:30.860Z,6.00
2017-07-14T00:40:59.740Z,7.73
2017-07-14T00:43:28.628Z,6.60
2017-07-14T00:45:57.494Z,3.80
2017-07-14T00:48:26.400Z,3.53
2017-07-14T00:50:55.278Z,5.00
2017-07-14T00:53:24.169Z,6.30
2017-07-14T00:55:53.090Z,4.57
2017-07-14T00:58:21.958Z,4.20
2017-07-14T01:00:50.855Z,5.70
2017-07-14T01:03:19.726Z,6.67
2017-07-14T01:05:48.640Z,4.80
2017-07-14T01:08:17.529Z,4.80
2017-07-14T01:10:46.414Z,6.40
2017-07-14T01:13:15.293Z,5.60
2017-07-14T01:15:44.883Z,6.33
2017-07-14T01:18:13.754Z,4.20
2017-07-14T01:20:42.655Z,3.77
2017-07-14T01:23:11.538Z,4.57
2017-07-14T01:25:40.435Z,3.77
2017-07-14T01:28:09.320Z,4.47
2017-07-14T01:30:38.216Z,5.33
2017-07-14T01:33:07.103Z,4.60
2017-07-14T01:35:36.089Z,4.13
2017-07-14T01:38:04.985Z,5.67
2017-07-14T01:40:33.877Z,6.13
2017-07-14T01:43:02.755Z,4.93
2017-07-14T01:45:31.648Z,3.13
2017-07-14T01:48:00.517Z,4.30
2017-07-14T01:50:29.425Z,3.33
2017-07-14T01:52:58.311Z,5.47
2017-07-14T01:55:27.194Z,3.90
2017-07-14T01:57:56.105Z,4.13
2017-07-14T02:00:24.987Z,3.83
2017-07-14T02:02:53.975Z,4.30
2017-07-14T02:05:22.880Z,8.67
2017-07-14T02:07:51.768Z,5.50
2017-07-14T02:10:20.643Z,3.23
2017-07-14T02:12:49.548Z,5.07
2017-07-14T02:15:18.424Z,6.47
2017-07-14T02:17:47.319Z,6.00
2017-07-14T02:20:16.229Z,4.23
2017-07-14T02:22:45.129Z,3.93
2017-07-14T02:25:14.016Z,5.97
2017-07-14T02:27:42.921Z,3.70
2017-07-14T02:30:11.808Z,4.10
2017-07-14T02:32:40.698Z,7.73
2017-07-14T02:35:09.567Z,4.47
2017-07-14T02:37:38.455Z,4.93
2017-07-14T02:40:07.349Z,4.20
2017-07-14T02:42:36.214Z,5.83
2017-07-14T02:45:05.106Z,4.07
2017-07-14T02:47:33.987Z,4.37
2017-07-14T02:50:02.882Z,4.17
2017-07-14T02:52:31.764Z,5.63
2017-07-14T02:55:00.673Z,4.13
2017-07-14T02:57:29.549Z,3.60
2017-07-14T02:59:58.451Z,6.30
2017-07-14T03:02:27.330Z,3.50
2017-07-14T03:04:56.222Z,3.57
2017-07-14T03:07:25.101Z,4.67
2017-07-14T03:09:53.987Z,5.13
2017-07-14T03:12:22.863Z,4.13
2017-07-14T03:14:51.760Z,5.43
2017-07-14T03:17:20.641Z,4.30
2017-07-14T03:19:49.535Z,5.60
2017-07-14T03:22:18.422Z,4.97
2017-07-14T03:24:47.286Z,6.20
2017-07-14T03:27:16.198Z,4.63
2017-07-14T03:29:45.062Z,4.07
2017-07-14T03:32:13.949Z,4.60
2017-07-14T03:34:42.827Z,6.50
2017-07-14T03:37:11.735Z,4.60
2017-07-14T03:39:40.610Z,5.43
2017-07-14T03:42:09.503Z,5.80
2017-07-14T03:44:38.384Z,4.53
2017-07-14T03:47:07.281Z,4.73
2017-07-14T03:49:36.157Z,4.87
2017-07-14T03:52:05.037Z,4.77
2017-07-14T03:54:33.912Z,4.50
2017-07-14T03:57:02.809Z,4.10
2017-07-14T03:59:31.700Z,5.70
2017-07-14T04:02:00.594Z,5.60
2017-07-14T04:04:29.464Z,4.40
2017-07-14T04:06:58.333Z,5.10
2017-07-14T04:09:27.224Z,4.93
2017-07-14T04:11:56.103Z,4.53
2017-07-14T04:14:24.989Z,5.13
2017-07-14T04:16:53.881Z,6.97
2017-07-14T04:19:22.756Z,4.90
2017-07-14T04:21:51.637Z,5.43
2017-07-14T04:24:20.523Z,4.50
2017-07-14T04:26:49.408Z,5.83
2017-07-14T04:29:18.294Z,6.23
2017-07-14T04:31:47.185Z,4.83
2017-07-14T04:34:16.119Z,3.70
2017-07-14T04:36:45.005Z,3.43
2017-07-14T04:39:13.904Z,5.10
2017-07-14T04:41:42.807Z,3.50
2017-07-14T04:44:11.743Z,5.87
2017-07-14T04:46:40.682Z,7.40
2017-07-14T04:49:09.561Z,5.13
2017-07-14T04:51:38.482Z,4.10
2017-07-14T04:54:07.354Z,7.80
2017-07-14T04:56:36.301Z,3.87
2017-07-14T04:59:05.178Z,3.47
2017-07-14T05:01:34.086Z,3.17
2017-07-14T05:04:02.973Z,4.43
2017-07-14T05:06:31.869Z,3.27
2017-07-14T05:09:00.741Z,4.40
2017-07-14T05:11:29.638Z,6.47
2017-07-14T05:13:58.516Z,9.97
2017-07-14T05:16:27.410Z,8.57
2017-07-14T05:18:56.330Z,7.23
2017-07-14T05:21:25.217Z,9.83
2017-07-14T05:23:54.101Z,4.53
2017-07-14T05:26:23.012Z,5.40
2017-07-14T05:28:51.901Z,7.73
2017-07-14T05:31:20.786Z,5.77
2017-07-14T05:33:49.679Z,6.73
2017-07-14T05:36:18.571Z,3.87
2017-07-14T05:38:47.477Z,6.30
2017-07-14T05:41:16.359Z,6.07
2017-07-14T05:43:45.241Z,8.10
2017-07-14T05:46:14.118Z,5.37
2017-07-14T05:48:43.028Z,3.40
2017-07-14T05:51:11.902Z,3.27
2017-07-14T05:53:40.803Z,8.40
2017-07-14T05:56:09.677Z,3.83
2017-07-14T05:58:38.578Z,5.57
2017-07-14T06:01:07.446Z,5.17
2017-07-14T06:03:36.360Z,6.40
2017-07-14T06:06:05.244Z,6.30
2017-07-14T06:08:32.782Z,3.27
2017-07-14T06:11:00.304Z,6.23
2017-07-14T06:13:27.838Z,5.20
2017-07-14T06:15:55.395Z,4.67
2017-07-14T06:18:22.940Z,4.57
2017-07-14T06:20:50.516Z,4.47
2017-07-14T06:23:18.042Z,6.63
2017-07-14T06:25:45.607Z,6.47
2017-07-14T06:28:13.914Z,6.73
2017-07-14T06:30:41.519Z,4.97
2017-07-14T06:33:09.077Z,7.63
2017-07-14T06:35:36.633Z,6.23
2017-07-14T06:38:04.188Z,5.23
2017-07-14T06:40:31.834Z,6.60
2017-07-14T06:42:59.371Z,3.50
2017-07-14T06:45:26.915Z,4.27
2017-07-14T06:47:55.258Z,4.47
2017-07-14T06:50:22.809Z,5.20
2017-07-14T06:52:50.359Z,6.90
2017-07-14T06:55:17.911Z,6.23
2017-07-14T06:57:45.464Z,5.80
2017-07-14T07:00:13.025Z,7.30
2017-07-14T07:02:40.578Z,4.57
2017-07-14T07:05:09.454Z,3.43
2017-07-14T07:07:38.362Z,3.40
2017-07-14T07:10:07.244Z,3.07
2017-07-14T07:12:36.131Z,3.90
2017-07-14T07:15:05.050Z,5.97
2017-07-14T07:17:33.947Z,2.77
2017-07-14T07:20:02.834Z,4.90
2017-07-14T07:22:31.739Z,9.20
2017-07-14T07:25:00.626Z,4.30
2017-07-14T07:27:29.560Z,5.27
2017-07-14T07:29:58.451Z,4.80
2017-07-14T07:32:27.330Z,7.23
2017-07-14T07:34:56.306Z,5.80
2017-07-14T07:37:25.192Z,6.23
2017-07-14T07:39:54.091Z,4.93
2017-07-14T07:42:22.966Z,5.13
2017-07-14T07:44:51.869Z,2.43
2017-07-14T07:47:26.529Z,6.10
2017-07-14T07:49:55.428Z,5.40
2017-07-14T07:52:24.336Z,3.00
2017-07-14T07:54:53.228Z,4.30
2017-07-14T07:57:22.116Z,3.77
2017-07-14T07:59:51.017Z,2.93
2017-07-14T08:02:19.902Z,4.53
2017-07-14T08:04:48.819Z,4.33
2017-07-14T08:07:17.709Z,5.20
2017-07-14T08:09:46.596Z,7.50
2017-07-14T08:12:15.486Z,2.13
2017-07-14T08:14:44.368Z,2.67
2017-07-14T08:17:13.272Z,3.40
2017-07-14T08:19:42.183Z,2.83
2017-07-14T08:22:11.065Z,4.80
2017-07-14T08:24:39.970Z,2.63
2017-07-14T08:27:08.878Z,2.90
2017-07-14T08:29:56.358Z,6.53
2017-07-14T08:32:25.269Z,4.50
2017-07-14T08:34:54.146Z,2.93
2017-07-14T08:37:23.047Z,4.73
2017-07-14T08:39:51.939Z,4.60
2017-07-14T08:42:20.833Z,4.40
2017-07-14T08:44:49.713Z,5.80
2017-07-14T08:47:18.607Z,3.03
2017-07-14T08:49:47.523Z,3.83
2017-07-14T08:52:16.428Z,4.47
2017-07-14T08:54:45.322Z,2.43
2017-07-14T08:57:14.259Z,3.83
2017-07-14T08:59:43.122Z,5.23
2017-07-14T09:02:12.021Z,4.10
2017-07-14T09:04:40.914Z,4.33
2017-07-14T09:07:09.786Z,4.40
2017-07-14T09:09:38.706Z,4.63
2017-07-14T09:12:07.566Z,3.40
2017-07-14T09:14:36.465Z,3.53
2017-07-14T09:17:05.352Z,4.73
2017-07-14T09:19:34.247Z,3.53
2017-07-14T09:22:03.146Z,3.97
2017-07-14T09:24:32.093Z,2.23
2017-07-14T09:27:01.008Z,2.77
2017-07-14T09:29:29.930Z,2.10
2017-07-14T09:31:58.806Z,2.50
2017-07-14T09:34:27.731Z,5.60
2017-07-14T09:36:56.645Z,3.70
2017-07-14T09:39:25.535Z,2.67
2017-07-14T09:41:54.457Z,3.10
2017-07-14T09:44:23.331Z,3.77
2017-07-14T09:46:52.233Z,6.63
2017-07-14T09:49:21.117Z,3.27
2017-07-14T09:51:50.030Z,2.73
2017-07-14T09:54:18.900Z,2.63
2017-07-14T09:56:47.830Z,4.20
2017-07-14T09:59:16.807Z,8.77
2017-07-14T10:01:45.722Z,2.40
2017-07-14T10:04:14.593Z,4.93
2017-07-14T10:06:43.498Z,3.03
2017-07-14T10:09:12.378Z,3.90
2017-07-14T10:11:41.263Z,3.67
2017-07-14T10:14:10.132Z,3.73
2017-07-14T10:16:39.036Z,3.63
2017-07-14T10:19:07.926Z,3.40
2017-07-14T10:21:36.857Z,7.37
2017-07-14T10:24:05.747Z,3.20
2017-07-14T10:26:34.637Z,3.80
2017-07-14T10:29:03.558Z,2.23
2017-07-14T10:31:32.458Z,3.70
2017-07-14T10:34:01.368Z,3.77
2017-07-14T10:36:30.257Z,4.47
2017-07-14T10:38:59.176Z,3.73
2017-07-14T10:41:28.049Z,4.30
2017-07-14T10:43:56.936Z,5.47
2017-07-14T10:46:25.827Z,3.27
2017-07-14T10:48:54.743Z,3.30
2017-07-14T10:51:23.621Z,4.00
2017-07-14T10:53:52.534Z,2.47
2017-07-14T10:56:21.417Z,4.43
2017-07-14T10:58:50.317Z,2.73
2017-07-14T11:01:19.205Z,4.07
2017-07-14T11:03:48.112Z,3.67
2017-07-14T11:06:17.035Z,2.47
2017-07-14T11:08:45.960Z,1.90
2017-07-14T11:11:14.848Z,2.93
2017-07-14T11:13:43.730Z,1.97
2017-07-14T11:16:12.647Z,2.67
2017-07-14T11:18:41.552Z,4.00
2017-07-14T11:21:10.455Z,2.40
2017-07-14T11:23:39.323Z,2.27
2017-07-14T11:26:08.232Z,2.90
2017-07-14T11:28:37.110Z,3.90
2017-07-14T11:31:06.015Z,5.70
2017-07-14T11:33:34.886Z,3.13
2017-07-14T11:36:03.777Z,3.00
2017-07-14T11:38:32.694Z,2.60
2017-07-14T11:41:01.604Z,3.23
2017-07-14T11:43:30.478Z,2.30
2017-07-14T11:45:59.388Z,1.80
2017-07-14T11:48:28.265Z,2.50
2017-07-14T11:50:57.146Z,5.20
2017-07-14T11:53:26.036Z,3.20
2017-07-14T11:55:54.927Z,2.03
2017-07-14T11:58:23.819Z,1.93
2017-07-14T12:00:52.714Z,1.87
2017-07-14T12:03:21.596Z,3.20
2017-07-14T12:05:50.491Z,3.23
2017-07-14T12:08:20.204Z,2.70
2017-07-14T12:10:49.077Z,3.05
2017-07-14T12:13:17.972Z,3.75
2017-07-14T12:15:46.854Z,3.25
2017-07-14T12:18:15.756Z,3.43
2017-07-14T12:20:44.646Z,2.00
2017-07-14T12:23:13.555Z,2.20
2017-07-14T12:25:42.437Z,2.30
2017-07-14T12:28:11.334Z,2.40
2017-07-14T12:30:40.236Z,3.20
2017-07-14T12:33:09.157Z,4.17
2017-07-14T12:35:38.044Z,1.70
2017-07-14T12:38:06.939Z,2.23
2017-07-14T12:40:35.834Z,3.30
2017-07-14T12:43:04.721Z,2.13
2017-07-14T12:45:33.616Z,3.28
2017-07-14T12:48:02.502Z,2.58
2017-07-14T12:50:31.415Z,3.45
2017-07-14T12:53:00.314Z,6.30
2017-07-14T12:55:29.221Z,3.07
2017-07-14T12:57:58.097Z,3.43
2017-07-14T13:00:27.000Z,5.07
2017-07-14T13:02:55.884Z,3.67
2017-07-14T13:05:24.777Z,5.53
2017-07-14T13:07:53.767Z,2.60
2017-07-14T13:10:22.684Z,3.70
2017-07-14T13:12:51.574Z,2.63
2017-07-14T13:15:20.492Z,2.60
2017-07-14T13:17:49.416Z,6.93
2017-07-14T13:20:18.305Z,2.47
2017-07-14T13:22:47.195Z,3.13
2017-07-14T13:25:16.211Z,3.07
2017-07-14T13:27:45.108Z,4.00
2017-07-14T13:30:13.972Z,2.87
2017-07-14T13:32:42.870Z,1.77
2017-07-14T13:35:11.756Z,2.60
2017-07-14T13:37:40.675Z,2.43
2017-07-14T13:40:09.555Z,3.33
2017-07-14T13:42:38.451Z,4.50
2017-07-14T13:45:07.323Z,3.07
2017-07-14T13:47:36.259Z,4.47
2017-07-14T13:50:05.147Z,7.30
2017-07-14T13:52:34.076Z,3.90
2017-07-14T13:55:02.954Z,4.53
2017-07-14T13:57:31.858Z,3.10
2017-07-14T14:00:00.741Z,3.80
2017-07-14T14:02:29.647Z,2.83
2017-07-14T14:04:58.526Z,5.53
2017-07-14T14:07:27.419Z,3.40
2017-07-14T14:09:56.305Z,3.10
2017-07-14T14:12:25.201Z,5.03
2017-07-14T14:14:54.071Z,4.83
2017-07-14T14:17:22.971Z,3.17
2017-07-14T14:19:51.864Z,4.73
2017-07-14T14:22:20.747Z,2.67
2017-07-14T14:24:49.639Z,2.50
2017-07-14T14:27:18.550Z,4.67
2017-07-14T14:29:47.446Z,4.60
2017-07-14T14:32:16.314Z,5.50
2017-07-14T14:34:45.201Z,4.10
2017-07-14T14:37:14.089Z,3.77
2017-07-14T14:39:42.990Z,3.20
2017-07-14T14:42:11.866Z,2.67
2017-07-14T14:44:40.856Z,4.97
2017-07-14T14:47:09.843Z,2.60
2017-07-14T14:49:38.749Z,3.00
2017-07-14T14:52:07.637Z,3.23
2017-07-14T14:54:36.544Z,3.67
2017-07-14T14:57:05.414Z,2.93
2017-07-14T14:59:34.337Z,4.27
2017-07-14T15:02:03.218Z,3.80
2017-07-14T15:04:32.111Z,2.73
2017-07-14T15:07:00.992Z,4.90
2017-07-14T15:09:29.876Z,4.60
2017-07-14T15:11:58.795Z,4.30
2017-07-14T15:14:27.719Z,3.73
2017-07-14T15:16:56.629Z,3.67
2017-07-14T15:19:25.518Z,4.73
2017-07-14T15:21:54.429Z,2.53
2017-07-14T15:24:23.320Z,3.53
2017-07-14T15:26:52.216Z,3.87
2017-07-14T15:29:21.148Z,4.17
2017-07-14T15:31:50.069Z,3.90
2017-07-14T15:34:18.968Z,4.90
2017-07-14T15:36:47.883Z,4.60
2017-07-14T15:39:16.884Z,2.80
2017-07-14T15:41:47.015Z,5.00
2017-07-14T15:44:15.995Z,5.00
2017-07-14T15:46:44.957Z,3.53
2017-07-14T15:49:13.833Z,4.10
2017-07-14T15:51:42.726Z,4.13
2017-07-14T15:54:11.609Z,3.43
2017-07-14T15:56:40.535Z,3.57
2017-07-14T15:59:09.431Z,3.10
2017-07-14T16:01:38.334Z,2.90
2017-07-14T16:04:07.231Z,5.33
2017-07-14T16:06:36.119Z,4.93
2017-07-14T16:09:05.036Z,4.20
2017-07-14T16:11:33.893Z,3.67
2017-07-14T16:14:02.893Z,4.00
2017-07-14T16:16:31.798Z,2.67
2017-07-14T16:19:00.766Z,3.30
2017-07-14T16:21:29.643Z,4.27
2017-07-14T16:23:58.534Z,4.60
2017-07-14T16:26:27.415Z,3.70
2017-07-14T16:28:56.304Z,3.73
2017-07-14T16:31:25.193Z,3.03
2017-07-14T16:33:54.091Z,2.70
2017-07-14T16:36:22.983Z,4.87
2017-07-14T16:38:51.883Z,3.53
2017-07-14T16:41:20.787Z,3.50
2017-07-14T16:43:49.666Z,3.80
2017-07-14T16:46:18.553Z,2.63
2017-07-14T16:48:47.423Z,3.77
2017-07-14T16:51:16.342Z,4.27
2017-07-14T16:53:45.229Z,5.13
2017-07-14T16:56:14.121Z,6.23
2017-07-14T16:58:43.016Z,4.20
2017-07-14T17:01:11.907Z,2.83
2017-07-14T17:03:40.799Z,3.30
2017-07-14T17:06:09.712Z,5.90
2017-07-14T17:08:38.612Z,5.00
2017-07-14T17:11:07.547Z,3.60
2017-07-14T17:13:36.431Z,6.00
2017-07-14T17:16:05.334Z,4.27
2017-07-14T17:18:34.242Z,5.50
2017-07-14T17:21:03.138Z,3.83
2017-07-14T17:23:32.023Z,4.87
2017-07-14T17:26:00.919Z,6.10
2017-07-14T17:28:29.828Z,5.67
2017-07-14T17:30:58.720Z,8.20
2017-07-14T17:33:27.623Z,4.40
2017-07-14T17:35:56.502Z,4.80
2017-07-14T17:38:25.394Z,5.60
2017-07-14T17:40:54.283Z,3.63
2017-07-14T17:43:23.193Z,6.60
2017-07-14T17:45:52.053Z,3.90
2017-07-14T17:48:20.974Z,5.73
2017-07-14T17:50:49.849Z,4.80
2017-07-14T17:53:18.761Z,5.13
2017-07-14T17:55:47.654Z,5.60
2017-07-14T17:58:16.555Z,7.87
2017-07-14T18:00:45.441Z,6.53
2017-07-14T18:03:14.332Z,4.97
2017-07-14T18:05:43.242Z,5.70
2017-07-14T18:08:12.144Z,5.13
2017-07-14T18:10:41.043Z,4.80
2017-07-14T18:13:09.917Z,4.20
2017-07-14T18:15:38.810Z,3.10
2017-07-14T18:18:07.677Z,4.50
2017-07-14T18:20:36.568Z,4.60
2017-07-14T18:23:05.459Z,4.93
2017-07-14T18:25:34.349Z,4.43
2017-07-14T18:28:03.235Z,5.17
2017-07-14T18:30:32.147Z,4.00
2017-07-14T18:33:01.035Z,3.07
2017-07-14T18:35:29.948Z,4.03
2017-07-14T18:37:58.844Z,3.27
2017-07-14T18:40:27.738Z,5.93
2017-07-14T18:42:56.628Z,12.77
2017-07-14T18:45:25.587Z,7.70
2017-07-14T18:47:54.476Z,3.77
2017-07-14T18:50:23.354Z,5.83
2017-07-14T18:52:52.250Z,7.57
2017-07-14T18:55:21.148Z,4.37
2017-07-14T18:57:50.071Z,4.50
2017-07-14T19:00:18.964Z,4.77
2017-07-14T19:02:47.857Z,6.30
2017-07-14T19:05:16.741Z,6.30
2017-07-14T19:07:45.633Z,7.50
2017-07-14T19:10:14.520Z,5.80
2017-07-14T19:12:43.425Z,8.53
2017-07-14T19:15:12.301Z,5.97
2017-07-14T19:17:41.188Z,7.77
2017-07-14T19:20:10.061Z,7.70
2017-07-14T19:22:38.969Z,6.70
2017-07-14T19:25:07.871Z,5.67
2017-07-14T19:27:36.785Z,6.30
2017-07-14T19:30:05.665Z,6.73
2017-07-14T19:32:34.560Z,4.40
2017-07-14T19:35:03.495Z,6.30
2017-07-14T19:37:32.402Z,6.20
2017-07-14T19:40:01.307Z,5.37
2017-07-14T19:42:30.202Z,10.30
2017-07-14T19:44:59.126Z,7.03
2017-07-14T19:47:28.009Z,9.73
2017-07-14T19:49:56.914Z,6.87
2017-07-14T19:52:25.789Z,7.63
2017-07-14T19:54:54.694Z,6.67
2017-07-14T19:57:23.581Z,6.93
2017-07-14T19:59:52.490Z,8.43
2017-07-14T20:02:21.378Z,6.60
2017-07-14T20:48:31.648Z,9.80
2017-07-14T20:51:00.533Z,12.73
2017-07-14T20:53:29.441Z,14.93
2017-07-14T20:55:58.347Z,9.40
2017-07-14T20:58:27.258Z,13.87
2017-07-14T21:00:56.160Z,13.20
2017-07-14T21:03:25.100Z,11.90
2017-07-14T21:05:53.983Z,13.60
2017-07-14T21:08:22.901Z,13.13
2017-07-14T21:10:51.812Z,14.27
2017-07-14T21:13:20.737Z,11.67
2017-07-14T21:15:49.615Z,11.93
2017-07-14T21:18:18.509Z,9.27
2017-07-14T21:20:47.466Z,7.43
2017-07-14T21:23:16.371Z,8.30
2017-07-14T21:25:45.272Z,7.33
2017-07-14T21:28:14.220Z,7.67
2017-07-14T21:30:43.144Z,8.40
2017-07-14T21:33:12.035Z,8.13
2017-07-14T21:35:40.954Z,8.10
2017-07-14T21:38:09.833Z,9.70
2017-07-14T21:40:38.731Z,7.40
2017-07-14T21:43:07.636Z,8.17
2017-07-14T21:45:36.551Z,7.60
2017-07-14T21:48:05.451Z,7.53
2017-07-14T21:50:34.342Z,8.37
2017-07-14T21:53:03.218Z,7.50
2017-07-14T21:55:32.182Z,8.10
2017-07-14T21:58:01.060Z,7.90
2017-07-14T22:00:30.003Z,8.27
2017-07-14T22:02:58.877Z,9.10
2017-07-14T22:05:27.766Z,7.80
2017-07-14T22:07:56.667Z,8.63
2017-07-14T22:10:25.549Z,8.40
2017-07-14T22:12:54.450Z,7.70
2017-07-14T22:15:23.333Z,8.57
2017-07-14T22:17:52.234Z,8.67
2017-07-14T22:20:21.113Z,10.10
2017-07-14T22:22:50.022Z,7.50
2017-07-14T22:25:18.907Z,8.10
2017-07-14T22:27:47.815Z,12.73
2017-07-14T22:30:16.707Z,8.70
2017-07-14T22:32:45.602Z,8.27
2017-07-14T22:35:14.534Z,7.20
2017-07-14T22:37:43.436Z,10.07
2017-07-14T22:40:12.347Z,8.33
2017-07-14T22:42:41.234Z,8.80
2017-07-14T22:45:10.154Z,9.13
2017-07-14T22:47:39.050Z,8.43
2017-07-14T22:50:07.930Z,9.30
2017-07-14T22:52:36.840Z,8.17
2017-07-14T22:55:05.740Z,7.63
2017-07-14T22:57:34.621Z,9.30
2017-07-14T23:00:03.624Z,8.67
2017-07-14T23:02:32.511Z,10.17
2017-07-14T23:05:01.425Z,8.77
2017-07-14T23:07:30.324Z,9.40
2017-07-14T23:09:59.247Z,8.80
2017-07-14T23:12:28.128Z,8.20
2017-07-14T23:14:57.018Z,8.70
2017-07-14T23:17:25.900Z,8.47
2017-07-14T23:19:54.797Z,9.40
2017-07-14T23:22:23.713Z,9.53
2017-07-14T23:24:52.603Z,9.03
2017-07-14T23:27:21.521Z,10.10
2017-07-14T23:29:50.418Z,10.40
2017-07-14T23:32:19.311Z,10.27
2017-07-14T23:34:48.204Z,9.10
2017-07-14T23:37:17.110Z,10.70
2017-07-14T23:39:46.052Z,9.20
2017-07-14T23:42:14.947Z,10.00
2017-07-14T23:44:43.836Z,10.73
2017-07-14T23:47:12.735Z,9.60
2017-07-14T23:49:41.619Z,10.90
2017-07-14T23:52:10.514Z,10.10
2017-07-14T23:54:39.414Z,10.77
2017-07-14T23:57:08.324Z,10.10
2017-07-14T23:59:37.255Z,10.23
